createdAt,value
2018-11-13T00:00:17.846Z,64.13
2018-11-13T00:02:46.159Z,59.33
2018-11-13T00:05:14.483Z,77.83
2018-11-13T00:07:43.652Z,91.73
2018-11-13T00:10:12.810Z,68.13
2018-11-13T00:12:41.711Z,43.47
2018-11-13T00:15:10.607Z,76.47
2018-11-13T00:17:39.314Z,73.13
2018-11-13T00:20:09.889Z,37.67
2018-11-13T00:22:38.245Z,53.17
2018-11-13T00:25:08.061Z,38.10
2018-11-13T00:27:37.049Z,62.07
2018-11-13T00:30:07.301Z,36.67
2018-11-13T00:32:35.633Z,23.57
2018-11-13T00:35:04.018Z,54.63
2018-11-13T00:37:32.424Z,38.93
2018-11-13T00:40:00.751Z,39.67
2018-11-13T00:42:29.551Z,42.27
2018-11-13T00:44:58.039Z,65.93
2018-11-13T00:47:26.405Z,86.07
2018-11-13T00:49:55.259Z,17.90
2018-11-13T00:52:23.621Z,52.53
2018-11-13T00:54:51.989Z,89.57
2018-11-13T00:57:20.241Z,20.60
2018-11-13T00:59:48.841Z,13.03
2018-11-13T01:02:17.593Z,38.90
2018-11-13T01:04:45.965Z,113.17
2018-11-13T01:07:14.590Z,170.37
2018-11-13T01:09:43.008Z,72.20
2018-11-13T01:12:11.424Z,65.27
2018-11-13T01:14:39.823Z,14.43
2018-11-13T01:17:08.159Z,21.93
2018-11-13T01:19:36.551Z,17.13
2018-11-13T01:22:05.658Z,109.57
2018-11-13T01:24:34.127Z,56.60
2018-11-13T01:27:02.412Z,86.20
2018-11-13T01:29:30.947Z,115.17
2018-11-13T01:31:59.349Z,23.70
2018-11-13T01:34:28.242Z,28.20
2018-11-13T01:36:56.839Z,70.67
2018-11-13T01:39:25.219Z,38.57
2018-11-13T01:41:53.504Z,14.23
2018-11-13T01:44:22.227Z,13.07
2018-11-13T01:46:50.725Z,17.20
2018-11-13T01:49:19.006Z,16.40
2018-11-13T01:51:47.341Z,118.47
2018-11-13T01:54:15.809Z,37.83
2018-11-13T01:56:44.220Z,57.20
2018-11-13T01:59:12.598Z,23.50
2018-11-13T02:01:41.037Z,34.23
2018-11-13T02:04:09.407Z,33.70
2018-11-13T02:06:38.203Z,49.87
2018-11-13T02:09:08.549Z,24.43
2018-11-13T02:11:37.188Z,16.80
2018-11-13T02:14:05.538Z,102.30
2018-11-13T02:16:33.829Z,13.53
2018-11-13T02:19:02.115Z,15.93
2018-11-13T02:21:30.697Z,30.10
2018-11-13T02:23:59.128Z,12.03
2018-11-13T02:26:27.759Z,18.07
2018-11-13T02:28:56.069Z,16.33
2018-11-13T02:31:24.396Z,39.57
2018-11-13T02:33:52.796Z,19.63
2018-11-13T02:36:21.106Z,20.23
2018-11-13T02:38:49.494Z,15.17
2018-11-13T02:41:17.878Z,15.93
2018-11-13T02:43:46.482Z,56.67
2018-11-13T02:46:14.823Z,11.57
2018-11-13T02:48:43.619Z,23.27
2018-11-13T02:51:12.071Z,19.57
2018-11-13T02:53:40.623Z,11.53
2018-11-13T02:56:09.146Z,18.70
2018-11-13T02:58:37.676Z,16.73
2018-11-13T03:01:06.035Z,58.37
2018-11-13T03:03:34.470Z,76.93
2018-11-13T03:06:03.222Z,20.57
2018-11-13T03:08:32.103Z,13.53
2018-11-13T03:11:00.539Z,19.10
2018-11-13T03:13:28.993Z,18.30
2018-11-13T03:15:57.308Z,31.57
2018-11-13T03:18:25.676Z,10.63
2018-11-13T03:20:54.327Z,21.17
2018-11-13T03:23:22.859Z,17.43
2018-11-13T03:25:51.242Z,39.60
2018-11-13T03:28:19.652Z,27.83
2018-11-13T03:30:47.996Z,25.93
2018-11-13T03:33:16.296Z,38.37
2018-11-13T03:35:44.612Z,40.13
2018-11-13T03:38:12.899Z,42.87
2018-11-13T03:40:41.228Z,39.10
2018-11-13T03:43:09.591Z,32.47
2018-11-13T03:45:38.075Z,21.90
2018-11-13T03:48:07.136Z,18.23
2018-11-13T03:50:35.749Z,26.47
2018-11-13T03:53:04.135Z,28.33
2018-11-13T03:55:32.430Z,19.87
2018-11-13T03:58:00.728Z,22.17
2018-11-13T04:00:29.318Z,20.50
2018-11-13T04:02:57.604Z,17.03
2018-11-13T04:05:25.958Z,12.33
2018-11-13T04:07:55.063Z,15.43
2018-11-13T04:10:24.066Z,12.50
2018-11-13T04:12:52.507Z,10.67
2018-11-13T04:15:22.153Z,8.57
2018-11-13T04:17:50.554Z,18.73
2018-11-13T04:20:20.093Z,33.97
2018-11-13T04:22:48.772Z,65.83
2018-11-13T04:25:17.082Z,46.77
2018-11-13T04:27:45.525Z,95.57
2018-11-13T04:30:16.749Z,16.37
2018-11-13T04:32:45.315Z,19.17
2018-11-13T04:35:15.045Z,21.33
2018-11-13T04:37:43.411Z,24.67
2018-11-13T04:40:15.621Z,52.27
2018-11-13T04:42:45.361Z,39.77
2018-11-13T04:45:14.859Z,77.63
2018-11-13T04:47:44.187Z,36.53
2018-11-13T04:50:14.493Z,12.93
2018-11-13T04:52:43.761Z,18.60
2018-11-13T04:55:12.545Z,8.50
2018-11-13T04:57:42.084Z,8.37
2018-11-13T05:00:13.197Z,7.90
2018-11-13T05:02:42.424Z,7.80
2018-11-13T05:05:12.298Z,8.70
2018-11-13T05:07:40.933Z,7.27
2018-11-13T05:10:11.733Z,8.20
2018-11-13T05:12:40.819Z,7.77
2018-11-13T05:15:09.246Z,6.97
2018-11-13T05:17:37.584Z,7.97
2018-11-13T05:20:06.579Z,7.80
2018-11-13T05:22:35.242Z,7.00
2018-11-13T05:25:04.555Z,8.17
2018-11-13T05:27:32.990Z,7.93
2018-11-13T05:30:01.262Z,8.13
2018-11-13T05:32:29.573Z,7.97
2018-11-13T05:34:58.634Z,7.93
2018-11-13T05:37:27.119Z,8.47
2018-11-13T05:39:55.532Z,8.00
2018-11-13T05:42:23.995Z,7.43
2018-11-13T05:44:52.266Z,9.00
2018-11-13T05:47:20.873Z,7.60
2018-11-13T05:49:49.143Z,7.70
2018-11-13T05:52:17.492Z,8.67
2018-11-13T05:54:45.798Z,8.77
2018-11-13T05:57:14.142Z,8.17
2018-11-13T05:59:42.442Z,9.47
2018-11-13T06:02:10.747Z,8.30
2018-11-13T06:04:39.500Z,7.53
2018-11-13T06:07:07.799Z,7.80
2018-11-13T06:09:36.177Z,9.73
2018-11-13T06:12:04.850Z,8.60
2018-11-13T06:14:33.206Z,11.87
2018-11-13T06:17:01.534Z,8.80
2018-11-13T06:19:29.810Z,8.50
2018-11-13T06:21:58.079Z,8.80
2018-11-13T06:24:26.370Z,8.90
2018-11-13T06:26:54.882Z,8.43
2018-11-13T06:29:23.329Z,8.60
2018-11-13T06:31:51.783Z,8.27
2018-11-13T06:34:20.050Z,8.20
2018-11-13T06:36:49.326Z,8.83
2018-11-13T06:39:17.755Z,7.70
2018-11-13T06:41:46.092Z,8.77
2018-11-13T06:44:14.462Z,8.83
2018-11-13T06:46:42.785Z,9.60
2018-11-13T06:49:11.548Z,10.67
2018-11-13T06:51:39.814Z,14.00
2018-11-13T06:54:22.985Z,9.50
2018-11-13T06:56:51.389Z,9.37
2018-11-13T06:59:19.869Z,10.47
2018-11-13T07:01:48.828Z,8.50
2018-11-13T07:04:17.237Z,8.60
2018-11-13T07:06:45.505Z,9.50
2018-11-13T07:09:13.822Z,9.57
2018-11-13T07:11:42.101Z,7.97
2018-11-13T07:14:10.482Z,7.23
2018-11-13T07:16:38.966Z,8.33
2018-11-13T07:19:07.346Z,9.50
2018-11-13T07:21:35.717Z,9.30
2018-11-13T07:24:04.558Z,7.50
2018-11-13T07:26:32.886Z,7.13
2018-11-13T07:29:02.057Z,7.17
2018-11-13T07:31:31.397Z,6.80
2018-11-13T07:33:59.939Z,7.40
2018-11-13T07:36:28.518Z,7.60
2018-11-13T07:38:57.180Z,9.93
2018-11-13T07:41:26.117Z,9.60
2018-11-13T07:43:54.407Z,7.93
2018-11-13T07:46:22.788Z,10.17
2018-11-13T07:48:51.067Z,10.27
2018-11-13T07:51:19.479Z,10.67
2018-11-13T07:53:47.906Z,10.23
2018-11-13T07:56:16.194Z,8.53
2018-11-13T07:58:44.467Z,9.20
2018-11-13T08:01:12.923Z,9.30
2018-11-13T08:03:41.244Z,10.13
2018-11-13T08:06:09.767Z,11.47
2018-11-13T08:08:38.026Z,11.60
2018-11-13T08:11:06.340Z,9.33
2018-11-13T08:13:35.479Z,8.80
2018-11-13T08:16:03.767Z,9.17
2018-11-13T08:18:33.254Z,9.83
2018-11-13T08:21:01.641Z,12.63
2018-11-13T08:23:29.937Z,11.70
2018-11-13T08:25:58.335Z,10.27
2018-11-13T08:28:26.652Z,15.67
2018-11-13T08:30:54.906Z,10.60
2018-11-13T08:33:23.799Z,15.70
2018-11-13T08:35:52.246Z,9.53
2018-11-13T08:38:20.610Z,8.13
2018-11-13T08:40:48.954Z,10.60
2018-11-13T08:43:17.237Z,12.77
2018-11-13T08:45:45.529Z,14.33
2018-11-13T08:48:13.809Z,11.00
2018-11-13T08:50:42.399Z,21.33
2018-11-13T08:53:10.762Z,7.70
2018-11-13T08:55:39.098Z,6.63
2018-11-13T08:58:07.390Z,7.13
2018-11-13T09:00:36.127Z,9.83
2018-11-13T09:03:04.476Z,8.13
2018-11-13T09:05:33.001Z,6.27
2018-11-13T09:08:01.328Z,8.50
2018-11-13T09:10:29.685Z,7.50
2018-11-13T09:12:57.983Z,5.87
2018-11-13T09:15:26.329Z,5.73
2018-11-13T09:17:54.611Z,4.83
2018-11-13T09:20:22.911Z,6.50
2018-11-13T09:22:51.530Z,4.37
2018-11-13T09:25:21.021Z,6.70
2018-11-13T09:27:49.353Z,4.17
2018-11-13T09:30:19.236Z,3.60
2018-11-13T09:32:47.992Z,2.93
2018-11-13T09:35:17.073Z,5.73
2018-11-13T09:37:45.450Z,26.67
2018-11-13T09:40:15.638Z,5.83
2018-11-13T09:42:45.041Z,6.20
2018-11-13T09:45:14.176Z,4.93
2018-11-13T09:47:42.555Z,4.80
2018-11-13T09:50:12.690Z,5.27
2018-11-13T09:52:41.798Z,4.73
2018-11-13T09:55:11.533Z,3.53
2018-11-13T09:57:40.477Z,5.57
2018-11-13T10:00:15.402Z,6.83
2018-11-13T10:02:45.877Z,5.10
2018-11-13T10:05:14.296Z,7.27
2018-11-13T10:07:42.874Z,3.53
2018-11-13T10:10:12.052Z,4.10
2018-11-13T10:12:40.370Z,4.40
2018-11-13T10:15:11.386Z,4.90
2018-11-13T10:17:40.220Z,3.07
2018-11-13T10:20:09.819Z,6.20
2018-11-13T10:22:38.166Z,5.10
2018-11-13T10:25:07.563Z,9.80
2018-11-13T10:27:35.836Z,5.77
2018-11-13T10:30:05.787Z,3.07
2018-11-13T10:32:34.125Z,3.87
2018-11-13T10:35:02.520Z,3.07
2018-11-13T10:37:31.125Z,2.90
2018-11-13T10:40:00.276Z,4.73
2018-11-13T10:42:28.582Z,5.30
2018-11-13T10:44:56.967Z,2.60
2018-11-13T10:47:25.356Z,2.70
2018-11-13T10:49:53.597Z,2.83
2018-11-13T10:52:21.909Z,3.63
2018-11-13T10:54:50.250Z,4.13
2018-11-13T10:57:18.645Z,3.00
2018-11-13T10:59:47.049Z,3.60
2018-11-13T11:02:20.741Z,3.00
2018-11-13T11:04:50.302Z,4.00
2018-11-13T11:07:18.605Z,5.23
2018-11-13T11:09:47.305Z,2.73
2018-11-13T11:12:16.017Z,3.27
2018-11-13T11:14:44.353Z,4.17
2018-11-13T11:17:12.721Z,4.63
2018-11-13T11:19:41.043Z,4.77
2018-11-13T11:22:09.373Z,3.63
2018-11-13T11:24:37.663Z,2.60
2018-11-13T11:27:05.977Z,3.57
2018-11-13T11:29:34.238Z,4.23
2018-11-13T11:32:02.527Z,5.33
2018-11-13T11:34:30.836Z,7.93
2018-11-13T11:36:59.138Z,5.63
2018-11-13T11:39:27.906Z,5.43
2018-11-13T11:41:56.412Z,5.27
2018-11-13T11:44:24.821Z,5.60
2018-11-13T11:46:53.079Z,6.90
2018-11-13T11:49:21.549Z,5.23
2018-11-13T11:51:49.924Z,5.80
2018-11-13T11:54:18.311Z,6.73
2018-11-13T11:56:46.722Z,4.73
2018-11-13T11:59:15.173Z,4.33
2018-11-13T12:01:43.535Z,4.20
2018-11-13T12:04:11.939Z,4.07
2018-11-13T12:06:40.306Z,4.57
2018-11-13T12:09:10.648Z,4.37
2018-11-13T12:11:40.507Z,4.77
2018-11-13T12:14:09.064Z,4.27
2018-11-13T12:16:38.785Z,4.53
2018-11-13T12:19:08.499Z,5.10
2018-11-13T12:21:36.841Z,4.87
2018-11-13T12:24:06.138Z,3.97
2018-11-13T12:26:34.907Z,3.70
2018-11-13T12:29:03.284Z,3.90
2018-11-13T12:31:31.803Z,4.27
2018-11-13T12:34:00.127Z,4.23
2018-11-13T12:36:28.406Z,3.87
2018-11-13T12:38:56.694Z,3.30
2018-11-13T12:41:45.075Z,4.43
2018-11-13T12:44:13.414Z,2.83
2018-11-13T12:49:32.394Z,8.93
2018-11-13T12:52:06.963Z,5.10
2018-11-13T12:54:35.855Z,8.00
2018-11-13T12:57:04.202Z,3.03
2018-11-13T12:59:32.516Z,2.30
2018-11-13T13:02:01.007Z,1.70
2018-11-13T13:04:29.261Z,1.80
2018-11-13T13:06:57.555Z,4.33
2018-11-13T13:09:27.057Z,1.60
2018-11-13T13:11:56.055Z,4.33
2018-11-13T13:14:24.329Z,2.63
2018-11-13T13:16:52.739Z,1.50
2018-11-13T13:19:21.157Z,1.80
2018-11-13T13:21:49.585Z,1.30
2018-11-13T13:24:17.873Z,1.43
2018-11-13T13:26:46.260Z,1.37
2018-11-13T13:29:14.727Z,1.27
2018-11-13T13:31:43.393Z,1.50
2018-11-13T13:34:11.705Z,3.13
2018-11-13T13:36:39.989Z,2.63
2018-11-13T13:39:09.411Z,1.37
2018-11-13T13:41:37.762Z,1.17
2018-11-13T13:44:06.523Z,5.03
2018-11-13T13:46:35.230Z,2.40
2018-11-13T13:49:03.517Z,3.03
2018-11-13T13:51:32.655Z,0.93
2018-11-13T13:54:01.167Z,1.17
2018-11-13T13:56:29.379Z,3.17
2018-11-13T13:58:57.748Z,2.33
2018-11-13T14:01:26.609Z,0.83
2018-11-13T14:03:54.933Z,1.07
2018-11-13T14:06:23.289Z,1.13
2018-11-13T14:08:51.999Z,1.23
2018-11-13T14:11:20.425Z,1.90
2018-11-13T14:13:49.094Z,1.40
2018-11-13T14:16:17.563Z,4.60
2018-11-13T14:18:45.878Z,0.80
2018-11-13T14:21:14.187Z,0.70
2018-11-13T14:23:42.655Z,5.20
2018-11-13T14:26:11.207Z,7.53
2018-11-13T14:28:39.515Z,1.03
2018-11-13T14:31:07.859Z,1.13
2018-11-13T14:33:36.854Z,0.53
2018-11-13T14:36:05.927Z,1.60
2018-11-13T14:38:34.447Z,1.67
2018-11-13T14:41:02.911Z,2.20
2018-11-13T14:43:31.317Z,1.00
2018-11-13T14:45:59.767Z,3.97
2018-11-13T14:48:28.177Z,0.80
2018-11-13T14:50:56.575Z,2.63
2018-11-13T14:53:25.227Z,1.27
2018-11-13T14:55:54.218Z,3.27
2018-11-13T14:58:23.127Z,1.00
2018-11-13T15:00:51.924Z,2.83
2018-11-13T15:03:20.537Z,1.87
2018-11-13T15:05:55.133Z,2.53
2018-11-13T15:08:23.606Z,2.63
2018-11-13T15:10:53.045Z,2.73
2018-11-13T15:13:22.603Z,1.63
2018-11-13T15:15:51.007Z,1.63
2018-11-13T15:18:19.439Z,2.47
2018-11-13T15:20:48.898Z,0.97
2018-11-13T15:23:17.613Z,4.10
2018-11-13T15:25:45.955Z,1.47
2018-11-13T15:28:14.735Z,2.30
2018-11-13T15:30:45.448Z,1.33
2018-11-13T15:33:16.421Z,1.60
2018-11-13T15:35:45.018Z,0.67
2018-11-13T15:38:13.359Z,1.03
2018-11-13T15:40:41.727Z,1.10
2018-11-13T15:43:10.125Z,1.43
2018-11-13T15:45:38.425Z,2.43
2018-11-13T15:48:08.490Z,3.80
2018-11-13T15:50:37.437Z,1.57
2018-11-13T15:53:06.438Z,0.90
2018-11-13T15:55:34.893Z,1.67
2018-11-13T15:58:03.353Z,1.00
2018-11-13T16:00:34.079Z,0.90
2018-11-13T16:03:04.554Z,0.63
2018-11-13T16:05:37.162Z,0.83
2018-11-13T16:08:06.603Z,1.47
2018-11-13T16:10:35.018Z,26.50
2018-11-13T16:13:03.486Z,10.03
2018-11-13T16:15:32.470Z,2.87
2018-11-13T16:18:02.153Z,2.20
2018-11-13T16:20:30.541Z,3.57
2018-11-13T16:22:58.977Z,2.40
2018-11-13T16:25:27.654Z,1.17
2018-11-13T16:27:56.010Z,7.20
2018-11-13T16:30:26.089Z,3.50
2018-11-13T16:32:54.668Z,1.80
2018-11-13T16:35:24.156Z,1.80
2018-11-13T16:37:53.273Z,2.30
2018-11-13T16:40:24.924Z,2.33
2018-11-13T16:42:53.238Z,5.27
2018-11-13T16:45:23.038Z,3.93
2018-11-13T16:47:51.719Z,2.27
2018-11-13T16:50:28.165Z,4.70
2018-11-13T16:52:56.702Z,4.47
2018-11-13T16:55:30.422Z,2.70
2018-11-13T16:58:00.081Z,9.80
2018-11-13T17:00:28.972Z,7.87
2018-11-13T17:03:04.422Z,2.87
2018-11-13T17:05:33.045Z,2.13
2018-11-13T17:08:01.158Z,2.23
2018-11-13T17:10:31.167Z,1.70
2018-11-13T17:13:00.250Z,2.13
2018-11-13T17:15:29.818Z,5.37
2018-11-13T17:17:59.299Z,5.40
2018-11-13T17:20:27.875Z,3.07
2018-11-13T17:22:56.254Z,2.47
2018-11-13T17:25:26.390Z,5.20
2018-11-13T17:27:56.489Z,3.70
2018-11-13T17:30:27.073Z,4.83
2018-11-13T17:32:56.339Z,5.63
2018-11-13T17:35:25.668Z,6.60
2018-11-13T17:37:54.960Z,17.10
2018-11-13T17:40:25.327Z,27.10
2018-11-13T17:42:54.993Z,33.30
2018-11-13T17:45:24.857Z,45.57
2018-11-13T17:47:53.156Z,49.80
2018-11-13T17:50:30.456Z,35.83
2018-11-13T17:52:58.850Z,27.57
2018-11-13T17:55:27.430Z,18.70
2018-11-13T17:57:57.862Z,18.20
2018-11-13T18:00:32.342Z,12.40
2018-11-13T18:03:01.173Z,14.93
2018-11-13T18:05:30.097Z,21.13
2018-11-13T18:07:59.666Z,24.60
2018-11-13T18:10:28.923Z,24.83
2018-11-13T18:12:57.309Z,24.07
2018-11-13T18:15:26.887Z,14.07
2018-11-13T18:17:55.505Z,11.47
2018-11-13T18:20:26.205Z,9.83
2018-11-13T18:22:54.632Z,9.50
2018-11-13T18:25:23.366Z,10.30
2018-11-13T18:27:53.121Z,10.03
2018-11-13T18:30:24.522Z,9.87
2018-11-13T18:32:53.284Z,6.33
2018-11-13T18:35:22.977Z,7.00
2018-11-13T18:37:53.125Z,5.33
2018-11-13T18:40:22.102Z,5.07
2018-11-13T18:42:51.302Z,44.80
2018-11-13T18:45:22.699Z,136.53
2018-11-13T18:47:51.110Z,31.17
2018-11-13T18:50:21.858Z,20.23
2018-11-13T18:52:50.538Z,6.23
2018-11-13T18:55:19.238Z,4.50
2018-11-13T18:57:47.746Z,7.57
2018-11-13T19:00:22.268Z,7.90
2018-11-13T19:02:50.626Z,6.90
2018-11-13T19:05:19.338Z,6.87
2018-11-13T19:07:48.570Z,34.13
2018-11-13T19:10:30.052Z,12.03
2018-11-13T19:12:59.442Z,14.30
2018-11-13T19:15:29.093Z,11.50
2018-11-13T19:17:57.606Z,20.90
2018-11-13T19:20:26.787Z,16.60
2018-11-13T19:22:55.713Z,15.67
2018-11-13T19:25:28.622Z,13.00
2018-11-13T19:27:58.562Z,13.33
2018-11-13T19:30:27.090Z,9.13
2018-11-13T19:32:55.710Z,7.23
2018-11-13T19:35:24.553Z,7.27
2018-11-13T19:37:52.886Z,5.43
2018-11-13T19:40:23.813Z,5.53
2018-11-13T19:42:53.071Z,5.83
2018-11-13T19:45:21.844Z,6.07
2018-11-13T19:47:50.219Z,5.63
2018-11-13T19:50:20.002Z,6.03
2018-11-13T19:52:48.350Z,8.53
2018-11-13T19:55:17.463Z,6.27
2018-11-13T19:57:47.054Z,4.83
2018-11-13T20:00:19.861Z,5.03
2018-11-13T20:02:49.578Z,11.10
2018-11-13T20:05:18.011Z,13.93
2018-11-13T20:07:46.788Z,8.07
2018-11-13T20:10:16.882Z,26.87
2018-11-13T20:12:46.222Z,10.13
2018-11-13T20:15:14.553Z,19.43
2018-11-13T20:17:43.241Z,14.07
2018-11-13T20:20:15.918Z,13.77
2018-11-13T20:22:44.656Z,13.10
2018-11-13T20:25:15.087Z,13.33
2018-11-13T20:27:43.789Z,13.33
2018-11-13T20:30:15.887Z,12.37
2018-11-13T20:32:44.350Z,11.90
2018-11-13T20:35:13.179Z,14.97
2018-11-13T20:37:42.933Z,14.07
2018-11-13T20:40:19.714Z,17.67
2018-11-13T20:42:51.229Z,17.20
2018-11-13T20:45:19.822Z,16.97
2018-11-13T20:47:48.331Z,15.37
2018-11-13T20:50:17.951Z,21.00
2018-11-13T20:52:46.582Z,18.87
2018-11-13T20:55:15.306Z,14.10
2018-11-13T20:57:43.682Z,15.00
2018-11-13T21:00:19.140Z,13.80
2018-11-13T21:02:48.086Z,15.83
2018-11-13T21:05:16.566Z,12.77
2018-11-13T21:07:45.115Z,12.47
2018-11-13T21:10:15.745Z,14.67
2018-11-13T21:12:44.832Z,15.93
2018-11-13T21:15:15.045Z,13.87
2018-11-13T21:17:43.484Z,16.57
2018-11-13T21:20:14.102Z,13.70
2018-11-13T21:22:42.830Z,18.03
2018-11-13T21:25:17.630Z,14.57
2018-11-13T21:27:46.456Z,13.57
2018-11-13T21:30:17.195Z,15.90
2018-11-13T21:32:46.243Z,15.50
2018-11-13T21:35:15.406Z,13.60
2018-11-13T21:37:45.203Z,11.30
2018-11-13T21:40:15.998Z,14.43
2018-11-13T21:42:45.442Z,11.33
2018-11-13T21:45:14.439Z,9.83
2018-11-13T21:47:43.808Z,9.13
2018-11-13T21:50:13.858Z,11.60
2018-11-13T21:52:42.754Z,14.57
2018-11-13T21:55:13.149Z,13.73
2018-11-13T21:57:41.799Z,14.87
2018-11-13T22:00:14.760Z,14.43
2018-11-13T22:02:45.587Z,16.50
2018-11-13T22:05:13.939Z,12.67
2018-11-13T22:07:42.343Z,12.70
2018-11-13T22:10:11.574Z,11.40
2018-11-13T22:12:39.976Z,13.87
2018-11-13T22:15:11.230Z,15.00
2018-11-13T22:17:39.960Z,14.83
2018-11-13T22:20:09.861Z,14.70
2018-11-13T22:22:38.617Z,13.43
2018-11-13T22:25:09.262Z,11.07
2018-11-13T22:27:37.911Z,7.30
2018-11-13T22:30:07.368Z,9.83
2018-11-13T22:32:37.824Z,6.73
2018-11-13T22:35:08.028Z,7.27
2018-11-13T22:37:36.609Z,4.47
2018-11-13T22:40:07.637Z,4.70
2018-11-13T22:42:36.607Z,4.67
2018-11-13T22:45:05.359Z,3.97
2018-11-13T22:47:33.657Z,5.03
2018-11-13T22:50:02.261Z,3.30
2018-11-13T22:52:30.565Z,3.30
2018-11-13T22:54:59.178Z,2.77
2018-11-13T22:57:27.266Z,3.87
2018-11-13T22:59:55.542Z,5.67
2018-11-13T23:02:23.768Z,3.90
2018-11-13T23:04:52.310Z,5.47
2018-11-13T23:07:20.584Z,3.90
2018-11-13T23:09:48.965Z,6.70
2018-11-13T23:12:17.662Z,5.07
2018-11-13T23:14:46.030Z,5.63
2018-11-13T23:17:14.817Z,3.67
2018-11-13T23:19:43.287Z,4.13
2018-11-13T23:22:11.670Z,4.53
2018-11-13T23:24:39.969Z,6.50
2018-11-13T23:27:08.437Z,3.57
2018-11-13T23:29:36.815Z,3.90
2018-11-13T23:32:05.217Z,3.47
2018-11-13T23:34:33.762Z,2.80
2018-11-13T23:37:02.030Z,5.23
2018-11-13T23:39:30.326Z,2.97
2018-11-13T23:41:58.739Z,2.80
2018-11-13T23:44:27.947Z,3.40
2018-11-13T23:46:56.698Z,3.70
2018-11-13T23:49:25.397Z,3.27
2018-11-13T23:51:53.661Z,5.17
2018-11-13T23:54:22.087Z,3.17
2018-11-13T23:56:51.321Z,5.37
2018-11-13T23:59:19.596Z,4.27
